Time;durP1;ratioP1;P1;durP2;ratioP2;P2;SDS_P1;SDS_P2;PMS_P1;PMS_P2;Temp;Humidity;BMP_temperature;BMP_pressure;BME280_temperature;BME280_humidity;BME280_pressure;Samples;Min_cycle;Max_cycle;Signal;HPM_P1;HPM_P2
2023/10/05 00:02:03;;;;;;;;;1.00;1.00;;;;;23.53;45.20;101361.20;109610;1253;19360;-39
2023/10/05 00:04:40;;;;;;;;;1.00;1.00;;;;;23.55;45.21;101359.40;109590;1268;19603;-39
2023/10/05 00:07:07;;;;;;;;;1.00;1.00;;;;;23.54;45.44;101359.41;109592;1253;20547;-39
2023/10/05 00:09:35;;;;;;;;;1.00;1.00;;;;;23.54;45.32;101355.73;109594;1253;20811;-39
2023/10/05 00:12:05;;;;;;;;;1.00;1.00;;;;;23.53;45.38;101357.20;109596;1252;19699;-39
2023/10/05 00:14:35;;;;;;;;;1.00;1.00;;;;;23.58;45.31;101353.88;109588;1253;20150;-38
2023/10/05 00:17:04;;;;;;;;;1.50;1.50;;;;;23.57;45.29;101352.09;109586;1252;20827;-40
2023/10/05 00:19:35;;;;;;;;;1.00;1.00;;;;;23.55;45.16;101347.80;109587;1252;19737;-40
2023/10/05 00:22:04;;;;;;;;;1.00;1.00;;;;;23.55;45.12;101351.38;109578;1252;20071;-41
2023/10/05 00:24:35;;;;;;;;;1.00;1.00;;;;;23.54;45.18;101346.00;109605;1252;20847;-39
2023/10/05 00:27:05;;;;;;;;;1.00;1.00;;;;;23.53;45.49;101339.75;109613;1268;18531;-40
2023/10/05 00:29:40;;;;;;;;;1.00;1.00;;;;;23.53;45.31;101330.90;109612;1268;19840;-38
2023/10/05 00:32:13;;;;;;;;;1.00;1.00;;;;;23.58;45.33;101323.05;109591;1261;20637;-38
2023/10/05 00:34:41;;;;;;;;;1.00;1.00;;;;;23.56;45.31;101315.98;109617;1260;19815;-40
2023/10/05 00:37:10;;;;;;;;;1.00;1.00;;;;;23.58;45.22;101313.57;109582;1268;18653;-39
2023/10/05 00:39:38;;;;;;;;;1.50;1.00;;;;;23.58;45.08;101309.20;109604;1252;20712;-39
2023/10/05 00:42:10;;;;;;;;;2.00;2.00;;;;;23.56;45.00;101308.60;109636;1268;18414;-39
2023/10/05 00:44:40;;;;;;;;;1.00;1.00;;;;;23.57;45.10;101316.03;109606;1252;20890;-38
2023/10/05 00:47:11;;;;;;;;;1.00;1.00;;;;;23.57;45.25;101318.55;109606;1268;19497;-39
2023/10/05 00:49:45;;;;;;;;;1.00;1.00;;;;;23.55;45.22;101318.45;109618;1268;18390;-38
2023/10/05 00:52:15;;;;;;;;;1.00;1.00;;;;;23.60;45.08;101322.48;109654;1253;19972;-39
2023/10/05 00:54:44;;;;;;;;;1.00;1.00;;;;;23.56;45.16;101318.16;109617;1252;20810;-39
2023/10/05 00:57:14;;;;;;;;;2.00;1.00;;;;;23.56;45.41;101316.74;109573;1268;18550;-40
2023/10/05 00:59:42;;;;;;;;;1.00;1.00;;;;;23.58;45.24;101311.88;109604;1268;20182;-39
2023/10/05 01:02:16;;;;;;;;;1.00;1.00;;;;;23.60;44.96;101311.87;109593;1268;22627;-39
2023/10/05 01:04:55;;;;;;;;;2.00;2.00;;;;;23.58;45.14;101315.49;109606;1268;18316;-39
2023/10/05 01:10:29;;;;;;;;;1.50;1.50;;;;;23.57;45.04;101317.19;109604;1268;19391;-39
2023/10/05 01:12:58;;;;;;;;;1.00;1.00;;;;;23.57;44.94;101310.30;109591;1268;18490;-39
2023/10/05 01:15:32;;;;;;;;;1.00;1.00;;;;;23.59;44.89;101315.38;109586;1253;20233;-39
2023/10/05 01:18:00;;;;;;;;;1.00;1.00;;;;;23.57;45.08;101311.01;109546;1253;22218;-39
2023/10/05 01:20:29;;;;;;;;;1.00;1.00;;;;;23.60;45.29;101315.60;109565;1260;19581;-39
2023/10/05 01:22:57;;;;;;;;;1.00;1.00;;;;;23.57;45.15;101309.91;109605;1268;18680;-39
2023/10/05 01:25:27;;;;;;;;;1.00;1.00;;;;;23.55;45.25;101308.32;109592;1252;20881;-40
2023/10/05 01:27:54;;;;;;;;;2.00;2.00;;;;;23.57;45.23;101310.45;109608;1268;21689;-40
2023/10/05 01:30:22;;;;;;;;;1.00;1.00;;;;;23.57;45.06;101310.79;109584;1268;18695;-38
2023/10/05 01:32:49;;;;;;;;;1.00;1.00;;;;;23.57;45.17;101313.68;109636;1253;22190;-40
2023/10/05 01:35:19;;;;;;;;;1.00;1.00;;;;;23.57;45.08;101312.31;109601;1268;18608;-39
2023/10/05 01:37:46;;;;;;;;;1.00;1.00;;;;;23.58;45.15;101310.29;109603;1260;22990;-39
2023/10/05 01:40:20;;;;;;;;;1.00;1.00;;;;;23.58;44.99;101303.45;109601;1252;20804;-39
2023/10/05 01:42:47;;;;;;;;;1.00;1.00;;;;;23.58;45.06;101299.69;109561;1252;19511;-39
2023/10/05 01:45:16;;;;;;;;;1.00;1.00;;;;;23.54;45.13;101290.44;109607;1252;20129;-39
2023/10/05 01:47:45;;;;;;;;;2.00;1.00;;;;;23.58;44.91;101286.56;109584;1268;19396;-39
2023/10/05 01:50:18;;;;;;;;;2.00;1.00;;;;;23.58;44.99;101283.06;109601;1252;19729;-39
2023/10/05 01:52:51;;;;;;;;;2.00;1.50;;;;;23.56;45.31;101282.73;109637;1252;20252;-39
2023/10/05 01:55:20;;;;;;;;;1.00;1.00;;;;;23.56;45.14;101279.94;109163;1264;20889;-39
2023/10/05 01:57:48;;;;;;;;;2.00;1.00;;;;;23.56;44.98;101275.17;109599;1268;18577;-39
2023/10/05 02:00:20;;;;;;;;;1.00;1.00;;;;;23.55;45.09;101272.94;109584;1253;20105;-40
2023/10/05 02:02:48;;;;;;;;;2.00;2.00;;;;;23.54;45.09;101270.85;109596;1260;20862;-40
2023/10/05 02:05:18;;;;;;;;;1.67;1.67;;;;;23.56;45.18;101266.48;109779;1252;19704;-40
2023/10/05 02:07:45;;;;;;;;;1.50;1.00;;;;;23.58;45.14;101266.21;109981;1252;20020;-40
2023/10/05 02:10:13;;;;;;;;;1.67;1.33;;;;;23.57;44.98;101264.95;110013;1267;19388;-40
2023/10/05 02:12:41;;;;;;;;;1.00;1.00;;;;;23.57;44.85;101258.29;110014;1251;22290;-39
2023/10/05 02:15:14;;;;;;;;;1.00;1.00;;;;;23.57;45.01;101248.98;110002;1267;18594;-39
2023/10/05 02:17:43;;;;;;;;;2.00;2.00;;;;;23.55;45.07;101248.05;110008;1252;20853;-39
2023/10/05 02:20:25;;;;;;;;;1.00;1.00;;;;;23.54;44.96;101244.49;109999;1267;18291;-40
2023/10/05 02:22:54;;;;;;;;;1.00;1.00;;;;;23.53;45.20;101245.63;110025;1252;19963;-39
2023/10/05 02:25:25;;;;;;;;;1.00;1.00;;;;;23.55;44.94;101246.25;110012;1267;19358;-38
2023/10/05 02:27:53;;;;;;;;;1.00;1.00;;;;;23.55;44.89;101243.19;109988;1252;22166;-39
2023/10/05 02:30:27;;;;;;;;;1.00;1.00;;;;;23.56;45.04;101246.58;110015;1252;20229;-40
2023/10/05 02:32:55;;;;;;;;;2.00;1.00;;;;;23.58;45.00;101245.37;109998;1252;20790;-40
2023/10/05 02:35:29;;;;;;;;;2.00;2.00;;;;;23.57;45.07;101242.86;110011;1253;19626;-40
2023/10/05 02:37:58;;;;;;;;;2.00;2.00;;;;;23.56;45.02;101249.14;109974;1267;19993;-40
2023/10/05 02:40:27;;;;;;;;;1.00;1.00;;;;;23.55;45.01;101249.36;110002;1254;20883;-39
2023/10/05 02:42:56;;;;;;;;;1.50;1.50;;;;;23.55;44.80;101247.99;109999;1253;22111;-39
2023/10/05 02:45:24;;;;;;;;;1.00;1.00;;;;;23.55;45.10;101248.27;110002;1253;21735;-39
2023/10/05 02:47:51;;;;;;;;;1.00;1.00;;;;;23.55;45.03;101246.69;109987;1252;20822;-40
2023/10/05 02:50:20;;;;;;;;;1.00;1.00;;;;;23.52;45.03;101244.48;110012;1252;19735;-38
2023/10/05 02:52:48;;;;;;;;;4.00;2.00;;;;;23.53;45.02;101242.95;110006;1267;18974;-40
2023/10/05 02:55:15;;;;;;;;;1.00;1.00;;;;;23.54;44.86;101236.02;109985;1267;19463;-39
2023/10/05 02:57:43;;;;;;;;;2.00;2.00;;;;;23.53;44.87;101229.83;109911;1253;19691;-37
2023/10/05 03:00:12;;;;;;;;;4.00;4.00;;;;;23.53;45.12;101228.41;110065;1253;20020;-38
2023/10/05 03:02:46;;;;;;;;;2.00;2.00;;;;;23.54;45.07;101223.49;110033;1267;19379;-38
2023/10/05 03:05:13;;;;;;;;;2.00;2.00;;;;;23.54;45.15;101225.68;109803;1252;19699;-39
2023/10/05 03:07:43;;;;;;;;;1.00;1.00;;;;;23.54;45.06;101224.64;109612;1262;19978;-39
2023/10/05 03:10:15;;;;;;;;;2.00;2.00;;;;;23.53;45.10;101225.45;109601;1261;20628;-40
2023/10/05 03:12:43;;;;;;;;;1.50;1.50;;;;;23.54;45.23;101229.34;109609;1268;18397;-40
2023/10/05 03:15:12;;;;;;;;;1.00;1.00;;;;;23.55;44.93;101224.59;109604;1254;20087;-40
2023/10/05 03:17:40;;;;;;;;;1.00;1.00;;;;;23.52;44.84;101216.04;109616;1268;20894;-40
2023/10/05 03:20:15;;;;;;;;;1.00;1.00;;;;;23.52;45.20;101211.89;109566;1268;18430;-40
2023/10/05 03:22:45;;;;;;;;;1.00;1.00;;;;;23.52;44.86;101210.36;109562;1254;20124;-40
2023/10/05 03:25:15;;;;;;;;;2.00;2.00;;;;;23.53;45.14;101205.55;109638;1268;19343;-40
2023/10/05 03:27:45;;;;;;;;;1.50;1.50;;;;;23.55;45.08;101201.02;109623;1254;19660;-39
2023/10/05 03:30:14;;;;;;;;;2.00;1.00;;;;;23.53;45.07;101199.14;109618;1255;20071;-39
2023/10/05 03:32:41;;;;;;;;;1.00;1.00;;;;;23.53;45.05;101197.45;109647;1268;19555;-39
2023/10/05 03:35:09;;;;;;;;;1.00;1.00;;;;;23.51;45.08;101193.84;109586;1253;19698;-39
2023/10/05 03:37:39;;;;;;;;;2.00;2.00;;;;;23.50;44.84;101190.78;109615;1252;19926;-39
2023/10/05 03:40:19;;;;;;;;;1.00;1.00;;;;;23.50;45.00;101186.51;109572;1254;20980;-40
2023/10/05 03:42:48;;;;;;;;;4.00;3.00;;;;;23.49;44.89;101187.23;109592;1268;18703;-40
2023/10/05 03:45:16;;;;;;;;;1.00;1.00;;;;;23.51;45.14;101189.85;109584;1252;18902;-40
2023/10/05 03:47:45;;;;;;;;;2.00;2.00;;;;;23.52;45.03;101184.37;109653;1268;19414;-40
2023/10/05 03:50:16;;;;;;;;;2.00;2.00;;;;;23.52;44.75;101184.60;109572;1254;19660;-40
2023/10/05 03:52:44;;;;;;;;;1.00;1.00;;;;;23.49;45.06;101178.52;109622;1268;18648;-40
2023/10/05 03:55:12;;;;;;;;;2.00;1.00;;;;;23.52;44.93;101171.46;109611;1268;21736;-40
2023/10/05 03:57:41;;;;;;;;;3.00;2.00;;;;;23.50;45.12;101172.13;109570;1268;22900;-40
2023/10/05 04:00:22;;;;;;;;;1.00;1.00;;;;;23.48;45.08;101172.73;109605;1268;18701;-39
2023/10/05 04:02:50;;;;;;;;;1.67;1.67;;;;;23.50;45.01;101169.40;109615;1268;21978;-40
2023/10/05 04:05:20;;;;;;;;;1.00;1.00;;;;;23.49;45.17;101165.95;109569;1254;22514;-40
2023/10/05 04:07:49;;;;;;;;;2.00;2.00;;;;;23.52;44.79;101168.36;109598;1254;20103;-39
2023/10/05 04:10:21;;;;;;;;;1.00;1.00;;;;;23.53;44.91;101166.89;109607;1252;22804;-38
2023/10/05 04:12:49;;;;;;;;;1.00;1.00;;;;;23.50;45.04;101166.77;109624;1268;18454;-39
2023/10/05 04:15:18;;;;;;;;;1.00;1.00;;;;;23.49;44.87;101159.45;109592;1254;20135;-40
2023/10/05 04:17:49;;;;;;;;;2.00;2.00;;;;;23.48;44.99;101158.95;109594;1254;20926;-40
2023/10/05 04:20:19;;;;;;;;;2.00;2.00;;;;;23.48;44.79;101150.97;109522;1262;19560;-40
2023/10/05 04:22:49;;;;;;;;;2.00;2.00;;;;;23.48;45.16;101152.17;109603;1262;20151;-39
2023/10/05 04:25:17;;;;;;;;;2.00;2.00;;;;;23.49;45.02;101146.33;109584;1268;19284;-40
2023/10/05 04:27:46;;;;;;;;;2.00;2.00;;;;;23.48;45.21;101144.14;109640;1254;19681;-38
2023/10/05 04:30:17;;;;;;;;;1.00;1.00;;;;;23.47;45.12;101141.73;109597;1254;20162;-40
2023/10/05 04:32:44;;;;;;;;;2.00;2.00;;;;;23.47;44.91;101134.52;109599;1268;20744;-39
2023/10/05 04:35:20;;;;;;;;;1.00;1.00;;;;;23.45;44.85;101133.65;109541;1252;19670;-39
2023/10/05 04:37:49;;;;;;;;;1.67;1.67;;;;;23.48;44.85;101131.89;109592;1268;18933;-38
2023/10/05 04:40:22;;;;;;;;;1.00;1.00;;;;;23.50;45.09;101131.34;109577;1254;20792;-40
2023/10/05 04:42:50;;;;;;;;;2.00;2.00;;;;;23.62;45.47;101131.98;109584;1254;19709;-38
2023/10/05 04:45:20;;;;;;;;;2.00;2.00;;;;;23.64;45.49;101131.14;109572;1268;18650;-38
2023/10/05 04:47:48;;;;;;;;;3.00;2.00;;;;;23.58;46.83;101125.92;109613;1253;21911;-41
2023/10/05 04:50:17;;;;;;;;;2.00;2.00;;;;;23.65;47.14;101120.36;109640;1252;19703;-39
2023/10/05 04:52:50;;;;;;;;;3.00;2.00;;;;;23.70;49.21;101118.16;109609;1252;22773;-39
2023/10/05 04:55:22;;;;;;;;;2.00;2.00;;;;;23.65;49.53;101118.56;109583;1268;20693;-39
2023/10/05 04:57:55;;;;;;;;;4.00;4.00;;;;;23.65;48.95;101115.49;109598;1252;19701;-39
2023/10/05 05:03:33;;;;;;;;;3.00;2.00;;;;;23.66;49.37;101116.52;109593;1254;20806;-38
2023/10/05 05:06:10;;;;;;;;;4.00;4.00;;;;;23.63;48.79;101111.95;109594;1268;19775;-40
2023/10/05 05:08:40;;;;;;;;;4.50;4.00;;;;;23.63;48.54;101108.67;109591;1253;20073;-39
2023/10/05 05:11:11;;;;;;;;;4.33;4.00;;;;;23.59;48.30;101110.05;109636;1268;19793;-39
2023/10/05 05:13:39;;;;;;;;;4.00;2.00;;;;;23.62;47.99;101110.64;109618;1252;22721;-40
2023/10/05 05:16:07;;;;;;;;;4.00;2.00;;;;;23.65;47.88;101111.23;109589;1268;18653;-38
2023/10/05 05:18:38;;;;;;;;;4.00;4.00;;;;;23.66;47.87;101112.86;109656;1268;19387;-38
2023/10/05 05:21:07;;;;;;;;;2.00;2.00;;;;;23.66;47.37;101108.33;109681;1252;19600;-38
2023/10/05 05:23:35;;;;;;;;;2.00;2.00;;;;;23.66;47.37;101100.89;109625;1254;21463;-39
2023/10/05 05:26:03;;;;;;;;;2.00;2.00;;;;;23.65;47.37;101098.16;109600;1254;20805;-39
2023/10/05 05:28:31;;;;;;;;;5.00;5.00;;;;;23.71;47.41;101093.97;109615;1263;18317;-39
2023/10/05 05:31:00;;;;;;;;;9.00;5.00;;;;;23.70;46.50;101087.91;109603;1252;20092;-39
2023/10/05 05:33:28;;;;;;;;;5.00;5.00;;;;;23.70;46.50;101082.43;109599;1254;20878;-40
2023/10/05 05:35:55;;;;;;;;;5.50;4.50;;;;;23.72;46.06;101078.92;109605;1268;18356;-39
2023/10/05 05:38:22;;;;;;;;;6.00;6.00;;;;;23.69;45.84;101074.73;109593;1261;20231;-39
2023/10/05 05:40:53;;;;;;;;;5.00;5.00;;;;;23.66;44.98;101075.73;109607;1254;20699;-39
2023/10/05 05:43:21;;;;;;;;;5.00;5.00;;;;;23.64;44.56;101078.20;109641;1268;18241;-39
2023/10/05 05:45:49;;;;;;;;;5.33;5.00;;;;;23.64;44.26;101079.57;109577;1254;20061;-39
2023/10/05 05:48:16;;;;;;;;;8.00;6.00;;;;;23.57;43.73;101079.77;109603;1268;20881;-39
2023/10/05 05:50:43;;;;;;;;;6.00;6.00;;;;;23.60;43.33;101072.09;109613;1261;18718;-38
2023/10/05 05:53:12;;;;;;;;;10.00;6.00;;;;;23.62;43.34;101071.87;109588;1254;20147;-38
2023/10/05 05:55:43;;;;;;;;;9.00;9.00;;;;;23.58;42.57;101075.55;109557;1268;19743;-38
2023/10/05 05:58:14;;;;;;;;;8.00;6.00;;;;;23.57;42.33;101070.80;109616;1268;18621;-39
2023/10/05 06:00:41;;;;;;;;;9.00;9.00;;;;;23.51;42.53;101075.61;109597;1254;20141;-39
2023/10/05 06:03:11;;;;;;;;;7.00;6.00;;;;;23.46;42.51;101076.89;109648;1253;24083;-40
2023/10/05 06:05:39;;;;;;;;;6.00;6.00;;;;;23.54;42.09;101075.01;109574;1252;19684;-39
2023/10/05 06:08:09;;;;;;;;;6.00;6.00;;;;;23.53;42.14;101069.60;109627;1268;21537;-38
2023/10/05 06:10:37;;;;;;;;;5.00;5.00;;;;;23.51;42.11;101066.42;109620;1254;20798;-38
2023/10/05 06:13:04;;;;;;;;;8.00;8.00;;;;;23.55;41.95;101059.14;109570;1254;20096;-38
2023/10/05 06:15:31;;;;;;;;;6.00;6.00;;;;;23.55;41.92;101057.67;109595;1268;20106;-39
2023/10/05 06:18:00;;;;;;;;;10.00;8.00;;;;;23.54;41.56;101053.64;109595;1252;20799;-39
2023/10/05 06:20:27;;;;;;;;;6.00;6.00;;;;;23.55;41.07;101055.64;109550;1254;19613;-39
2023/10/05 06:22:54;;;;;;;;;8.00;6.00;;;;;23.55;41.07;101050.73;109562;1252;20170;-39
2023/10/05 06:25:22;;;;;;;;;8.50;8.00;;;;;23.51;41.11;101049.48;109593;1252;22792;-39
2023/10/05 06:27:49;;;;;;;;;9.00;8.00;;;;;23.53;40.88;101051.00;109586;1268;18650;-39
2023/10/05 06:30:16;;;;;;;;;8.00;8.00;;;;;23.53;40.81;101043.77;109604;1268;18656;-39
2023/10/05 06:32:44;;;;;;;;;8.00;8.00;;;;;23.52;40.85;101047.01;109582;1268;19568;-39
2023/10/05 06:35:12;;;;;;;;;12.00;9.00;;;;;23.53;40.96;101047.77;109603;1252;19626;-39
2023/10/05 06:37:39;;;;;;;;;6.00;6.00;;;;;23.55;40.44;101051.98;109573;1268;20074;-40
2023/10/05 06:40:12;;;;;;;;;6.00;6.00;;;;;23.57;40.42;101050.83;109574;1254;19428;-38
2023/10/05 06:42:41;;;;;;;;;9.00;8.00;;;;;23.54;40.18;101050.57;109584;1262;19673;-40
2023/10/05 06:45:08;;;;;;;;;8.67;8.67;;;;;23.51;40.46;101047.66;109693;1260;20034;-40
2023/10/05 06:47:37;;;;;;;;;10.00;9.00;;;;;23.52;40.19;101056.58;109701;1268;19687;-39
2023/10/05 06:50:08;;;;;;;;;6.00;6.00;;;;;23.51;40.35;101050.55;109618;1268;22324;-38
2023/10/05 06:52:36;;;;;;;;;8.00;6.00;;;;;23.51;40.23;101052.70;109588;1268;20027;-38
2023/10/05 06:55:07;;;;;;;;;9.00;8.00;;;;;23.52;40.07;101049.54;109589;1255;20655;-39
2023/10/05 06:57:35;;;;;;;;;9.00;8.00;;;;;23.52;40.02;101046.95;109587;1268;22797;-39
2023/10/05 07:00:03;;;;;;;;;8.50;6.00;;;;;23.61;39.92;101040.09;109599;1262;20178;-39
2023/10/05 07:02:30;;;;;;;;;9.00;9.00;;;;;23.50;40.25;101044.39;109596;1254;21908;-39
2023/10/05 07:04:57;;;;;;;;;9.00;9.00;;;;;23.48;40.45;101043.30;109596;1268;19316;-39
2023/10/05 07:07:25;;;;;;;;;8.50;8.50;;;;;23.41;40.52;101041.42;109608;1268;18980;-39
2023/10/05 07:09:52;;;;;;;;;8.67;7.33;;;;;23.29;40.66;101036.83;109546;1268;19329;-39
2023/10/05 07:12:19;;;;;;;;;8.00;8.00;;;;;23.17;40.83;101035.19;109647;1252;22267;-38
2023/10/05 07:14:47;;;;;;;;;9.00;8.00;;;;;23.15;40.85;101034.10;109609;1268;22199;-38
2023/10/05 07:17:14;;;;;;;;;8.00;6.00;;;;;23.13;40.91;101031.59;109587;1268;20676;-37
2023/10/05 07:19:42;;;;;;;;;8.50;8.00;;;;;23.11;41.02;101032.70;109611;1253;18364;-39
2023/10/05 07:22:09;;;;;;;;;8.00;6.00;;;;;23.06;40.95;101027.30;109588;1252;20042;-38
2023/10/05 07:24:37;;;;;;;;;7.00;6.50;;;;;22.98;41.02;101028.70;109573;1268;20792;-38
2023/10/05 07:27:04;;;;;;;;;5.00;5.00;;;;;22.97;41.15;101024.82;109588;1254;19624;-40
2023/10/05 07:29:32;;;;;;;;;8.00;6.00;;;;;22.90;40.93;101029.22;109604;1260;20036;-39
2023/10/05 07:31:59;;;;;;;;;6.00;6.00;;;;;22.91;41.09;101026.20;109601;1254;20749;-39
2023/10/05 07:34:26;;;;;;;;;8.00;6.00;;;;;22.92;41.17;101027.95;109612;1252;19415;-39
2023/10/05 07:36:54;;;;;;;;;9.00;9.00;;;;;22.95;41.47;101034.60;109588;1252;23324;-40
2023/10/05 07:39:23;;;;;;;;;8.00;7.00;;;;;22.93;42.02;101030.85;109606;1256;19585;-40
2023/10/05 07:41:51;;;;;;;;;8.00;6.00;;;;;22.87;42.02;101027.53;109583;1268;18425;-39
2023/10/05 07:44:18;;;;;;;;;6.00;6.00;;;;;22.85;42.06;101029.34;109697;1268;18691;-39
2023/10/05 07:46:46;;;;;;;;;5.50;5.50;;;;;22.83;42.00;101024.37;109692;1252;20836;-39
2023/10/05 07:49:14;;;;;;;;;7.00;6.00;;;;;22.84;42.10;101023.50;109580;1268;19629;-38
2023/10/05 07:51:41;;;;;;;;;5.00;5.00;;;;;22.87;41.58;101026.22;109597;1253;20143;-39
2023/10/05 07:54:09;;;;;;;;;6.00;6.00;;;;;22.87;41.88;101022.02;109582;1254;20785;-38
2023/10/05 07:56:36;;;;;;;;;7.00;7.00;;;;;22.84;41.83;101020.66;109593;1254;19665;-38
2023/10/05 07:59:04;;;;;;;;;5.50;5.50;;;;;22.81;41.82;101019.84;109587;1268;20019;-39
2023/10/05 08:01:31;;;;;;;;;8.00;8.00;;;;;22.81;41.65;101013.23;109637;1260;20680;-38
2023/10/05 08:03:59;;;;;;;;;8.00;6.00;;;;;22.80;41.31;101019.40;109580;1268;18449;-39
2023/10/05 08:06:27;;;;;;;;;8.00;6.00;;;;;22.74;41.46;101019.66;109582;1267;18692;-38
2023/10/05 08:08:54;;;;;;;;;6.00;5.00;;;;;22.70;41.38;101010.71;109573;1254;22737;-39
2023/10/05 08:11:21;;;;;;;;;8.00;8.00;;;;;22.73;41.03;101013.45;109574;1254;21820;-39
2023/10/05 08:13:49;;;;;;;;;5.00;5.00;;;;;22.69;41.13;101014.92;109602;1260;24456;-39
2023/10/05 08:16:16;;;;;;;;;5.00;5.00;;;;;22.73;40.93;101015.08;109592;1260;21036;-38
2023/10/05 08:18:44;;;;;;;;;6.00;6.00;;;;;22.71;41.22;101014.77;109551;1268;18461;-37
2023/10/05 08:21:11;;;;;;;;;7.00;7.00;;;;;22.65;41.16;101012.98;109582;1254;20119;-38
2023/10/05 08:23:38;;;;;;;;;5.00;5.00;;;;;22.71;40.74;101011.70;109608;1254;20833;-40
2023/10/05 08:26:07;;;;;;;;;8.00;6.00;;;;;22.63;40.70;101004.89;109588;1268;18414;-39
2023/10/05 08:28:35;;;;;;;;;6.00;5.00;;;;;22.61;40.87;101004.62;109620;1252;20135;-38
2023/10/05 08:31:05;;;;;;;;;8.00;8.00;;;;;22.65;40.85;101010.73;109581;1254;20820;-38
2023/10/05 08:33:35;;;;;;;;;8.00;6.00;;;;;22.66;40.82;101014.88;109588;1252;19683;-39
2023/10/05 08:36:06;;;;;;;;;6.00;6.00;;;;;22.68;40.89;101011.92;109597;1254;19958;-39
2023/10/05 08:38:34;;;;;;;;;8.00;6.00;;;;;22.64;40.83;101020.13;109577;1253;20794;-39
2023/10/05 08:41:07;;;;;;;;;5.00;5.00;;;;;22.61;40.93;101024.27;109591;1267;19703;-39
2023/10/05 08:43:35;;;;;;;;;8.00;6.00;;;;;22.62;41.05;101022.38;109591;1254;20353;-39
2023/10/05 08:46:03;;;;;;;;;5.00;5.00;;;;;22.60;40.88;101019.91;109606;1253;20826;-40
2023/10/05 08:48:35;;;;;;;;;8.00;7.00;;;;;22.59;41.68;101012.11;109661;1252;18603;-39
2023/10/05 08:51:08;;;;;;;;;8.50;8.50;;;;;22.64;42.55;101009.58;109620;1267;18763;-39
2023/10/05 08:53:41;;;;;;;;;6.00;6.00;;;;;22.63;42.43;101002.38;109623;1268;20798;-37
2023/10/05 08:56:08;;;;;;;;;5.00;5.00;;;;;22.62;42.21;101001.94;109678;1254;19704;-38
2023/10/05 08:58:35;;;;;;;;;9.00;8.00;;;;;22.65;42.25;100994.95;109672;1260;19994;-38
2023/10/05 09:01:03;;;;;;;;;6.00;6.00;;;;;22.60;42.05;100998.13;109549;1254;20805;-38
2023/10/05 09:03:35;;;;;;;;;11.00;8.00;;;;;22.56;41.79;100993.82;109618;1252;19633;-39
2023/10/05 09:06:20;;;;;;;;;7.00;6.00;;;;;22.58;41.82;100989.28;109544;1268;20028;-39
2023/10/05 09:08:57;;;;;;;;;6.50;5.50;;;;;22.54;41.92;100983.66;109604;1254;22278;-39
2023/10/05 09:11:24;;;;;;;;;11.00;8.00;;;;;22.55;41.92;100981.15;109576;1254;19692;-38
2023/10/05 09:13:52;;;;;;;;;6.00;5.33;;;;;22.55;41.71;100979.96;109609;1254;20171;-39
2023/10/05 09:16:21;;;;;;;;;8.00;6.50;;;;;22.55;41.77;100985.03;109579;1268;20783;-38
2023/10/05 09:18:49;;;;;;;;;5.00;5.00;;;;;22.63;41.50;100992.66;109600;1268;18384;-39
2023/10/05 09:21:19;;;;;;;;;8.00;6.00;;;;;22.68;41.58;100992.04;109586;1253;20041;-39
2023/10/05 09:23:47;;;;;;;;;5.00;5.00;;;;;22.79;41.79;100999.46;109596;1268;19536;-38
2023/10/05 09:26:15;;;;;;;;;5.00;5.00;;;;;22.82;41.84;101000.23;109659;1252;19653;-39
2023/10/05 09:29:00;;;;;;;;;5.50;5.00;;;;;22.79;41.76;101000.83;109596;1268;18788;-38
2023/10/05 09:31:28;;;;;;;;;8.00;7.33;;;;;22.87;41.58;101000.55;109563;1254;20974;-39
2023/10/05 09:33:56;;;;;;;;;5.00;5.00;;;;;22.91;41.27;101005.45;109624;1254;22602;-39
2023/10/05 09:36:25;;;;;;;;;5.00;5.00;;;;;22.93;41.70;101004.78;109508;1252;20092;-39
2023/10/05 09:38:54;;;;;;;;;4.00;4.00;;;;;22.88;41.62;101011.36;109583;1254;20846;-39
2023/10/05 09:41:25;;;;;;;;;8.00;6.00;;;;;22.88;41.81;101014.91;109618;1262;19547;-38
2023/10/05 09:43:53;;;;;;;;;4.00;4.00;;;;;22.89;41.81;101013.42;109596;1268;21038;-39
2023/10/05 09:46:22;;;;;;;;;4.00;4.00;;;;;22.94;41.87;101014.07;109595;1262;20978;-39
2023/10/05 09:48:49;;;;;;;;;4.00;4.00;;;;;22.96;41.87;101016.25;109625;1254;19738;-39
2023/10/05 09:51:17;;;;;;;;;4.00;4.00;;;;;22.96;41.89;101016.36;109645;1261;20001;-38
2023/10/05 09:53:44;;;;;;;;;5.00;4.00;;;;;22.95;42.07;101006.36;109619;1254;20834;-39
2023/10/05 09:56:13;;;;;;;;;3.33;2.00;;;;;22.97;42.28;101003.19;109628;1268;19772;-38
2023/10/05 09:58:41;;;;;;;;;4.00;4.00;;;;;22.98;42.27;101006.41;109627;1254;19686;-39
2023/10/05 10:01:20;;;;;;;;;4.00;4.00;;;;;23.00;42.27;101009.13;109604;1252;20825;-38
2023/10/05 10:03:47;;;;;;;;;4.00;4.00;;;;;23.00;42.42;101012.08;109476;1254;180877;-38
2023/10/05 10:06:17;;;;;;;;;3.33;2.00;;;;;23.03;42.48;101012.89;109589;1254;20097;-38
2023/10/05 10:08:51;;;;;;;;;3.00;2.00;;;;;23.00;42.54;101012.08;109613;1254;21152;-37
2023/10/05 10:11:19;;;;;;;;;2.00;2.00;;;;;23.02;42.50;101011.63;109593;1253;19677;-39
2023/10/05 10:13:47;;;;;;;;;2.00;2.00;;;;;23.02;42.54;101013.06;109595;1268;20181;-37
2023/10/05 10:16:16;;;;;;;;;3.00;3.00;;;;;23.01;42.51;101015.52;109606;1255;20816;-40
2023/10/05 10:18:44;;;;;;;;;4.00;4.00;;;;;23.00;42.70;101015.30;109648;1254;19700;-40
2023/10/05 10:21:12;;;;;;;;;4.00;2.00;;;;;23.06;42.42;101020.20;109610;1260;18686;-39
2023/10/05 10:23:39;;;;;;;;;4.00;3.00;;;;;23.04;42.51;101015.89;109566;1252;20718;-39
2023/10/05 10:26:07;;;;;;;;;2.00;2.00;;;;;23.07;42.84;101016.16;109604;1254;19772;-39
2023/10/05 10:28:49;;;;;;;;;2.00;2.00;;;;;23.03;42.85;101016.88;109624;1254;20117;-39
2023/10/05 10:31:17;;;;;;;;;2.00;2.00;;;;;23.04;42.77;101009.83;109615;1254;20869;-39
2023/10/05 10:33:50;;;;;;;;;2.00;2.00;;;;;23.07;42.64;101008.45;109667;1260;19532;-39
2023/10/05 10:36:19;;;;;;;;;2.00;2.00;;;;;23.08;42.81;101007.20;109633;1252;23006;-39
2023/10/05 10:38:47;;;;;;;;;1.50;1.50;;;;;23.10;42.85;101001.71;109631;1254;20753;-38
2023/10/05 10:41:16;;;;;;;;;2.00;2.00;;;;;23.10;42.97;101002.97;109610;1268;22072;-39
2023/10/05 10:43:49;;;;;;;;;1.50;1.50;;;;;23.12;43.17;101002.69;109633;1254;20260;-39
2023/10/05 10:46:19;;;;;;;;;4.00;4.00;;;;;23.12;43.45;101003.34;109636;1252;21012;-39
2023/10/05 10:48:47;;;;;;;;;2.00;2.00;;;;;23.18;43.35;100996.98;109585;1268;18437;-39
2023/10/05 10:51:15;;;;;;;;;2.00;2.00;;;;;23.21;43.44;100998.27;109593;1254;20380;-39
2023/10/05 10:53:42;;;;;;;;;4.00;4.00;;;;;23.16;43.73;100999.55;109558;1268;19394;-39
2023/10/05 10:56:20;;;;;;;;;4.00;4.00;;;;;23.15;43.76;101002.52;109615;1253;19601;-39
2023/10/05 10:58:48;;;;;;;;;4.00;2.00;;;;;23.20;43.68;101002.10;109599;1268;21064;-39
2023/10/05 11:01:28;;;;;;;;;2.00;2.00;;;;;23.22;43.89;101005.60;109570;1268;22229;-39
2023/10/05 11:03:55;;;;;;;;;2.00;2.00;;;;;23.20;43.86;100995.48;109603;1254;20028;-39
2023/10/05 11:06:26;;;;;;;;;3.00;2.00;;;;;23.19;44.06;100992.16;109595;1253;18624;-39
2023/10/05 11:08:53;;;;;;;;;4.00;4.00;;;;;23.20;44.16;100990.41;109590;1254;20764;-39
2023/10/05 11:11:20;;;;;;;;;2.00;2.00;;;;;23.22;44.01;100996.63;109605;1254;19665;-39
2023/10/05 11:13:54;;;;;;;;;2.00;2.00;;;;;23.21;44.36;100988.98;109592;1262;20064;-38
2023/10/05 11:16:26;;;;;;;;;3.00;2.00;;;;;23.26;44.08;100989.78;109602;1268;19376;-39
2023/10/05 11:18:57;;;;;;;;;1.00;1.00;;;;;23.24;44.16;100988.59;109605;1254;19715;-39
2023/10/05 11:21:26;;;;;;;;;6.00;5.00;;;;;23.25;44.37;100988.64;109575;1254;20099;-38
2023/10/05 11:23:57;;;;;;;;;2.00;2.00;;;;;23.27;44.26;100986.94;109564;1253;20878;-39
2023/10/05 11:26:33;;;;;;;;;2.00;2.00;;;;;23.30;44.06;100986.26;109589;1268;22163;-39
2023/10/05 11:29:00;;;;;;;;;4.00;4.00;;;;;23.34;44.15;100990.40;109602;1254;20088;-39
2023/10/05 11:31:33;;;;;;;;;2.00;2.00;;;;;23.33;44.13;100994.39;109622;1254;22380;-39
2023/10/05 11:34:03;;;;;;;;;2.00;2.00;;;;;23.33;44.22;100998.05;109592;1254;19711;-38